createdAt,value
2019-04-11T00:02:29.443Z,25.00
2019-04-11T00:04:59.134Z,27.10
2019-04-11T00:07:28.542Z,26.17
2019-04-11T00:09:58.848Z,26.87
2019-04-11T00:12:28.652Z,23.55
2019-04-11T00:14:58.115Z,23.75
2019-04-11T00:17:28.041Z,26.12
2019-04-11T00:19:57.909Z,26.37
2019-04-11T00:22:27.777Z,23.92
2019-04-11T00:24:57.340Z,22.25
2019-04-11T00:27:26.793Z,27.37
2019-04-11T00:29:56.165Z,25.35
2019-04-11T00:32:25.561Z,24.32
2019-04-11T00:34:55.298Z,24.43
2019-04-11T00:37:25.302Z,26.82
2019-04-11T00:39:54.789Z,24.25
2019-04-11T00:42:24.575Z,23.15
2019-04-11T00:44:54.945Z,27.05
2019-04-11T00:47:24.862Z,25.75
2019-04-11T00:49:54.726Z,27.55
2019-04-11T00:52:25.305Z,21.42
2019-04-11T00:54:55.391Z,23.05
2019-04-11T00:57:25.199Z,27.32
2019-04-11T00:59:54.621Z,26.42
2019-04-11T01:02:25.163Z,29.00
2019-04-11T01:04:54.672Z,22.55
2019-04-11T01:07:24.952Z,20.68
2019-04-11T01:09:54.835Z,27.15
2019-04-11T01:12:24.791Z,25.02
2019-04-11T01:14:55.296Z,18.57
2019-04-11T01:17:25.390Z,21.73
2019-04-11T01:19:55.283Z,19.10
2019-04-11T01:22:24.784Z,19.85
2019-04-11T01:24:55.792Z,30.17
2019-04-11T01:27:25.711Z,26.07
2019-04-11T01:29:55.707Z,22.15
2019-04-11T01:32:26.402Z,23.10
2019-04-11T01:34:55.786Z,23.87
2019-04-11T01:37:25.987Z,25.05
2019-04-11T01:40:02.415Z,21.60
2019-04-11T01:42:31.785Z,24.23
2019-04-11T01:45:01.179Z,20.85
2019-04-11T01:48:04.697Z,18.98
2019-04-11T01:50:34.998Z,21.82
2019-04-11T01:53:04.638Z,18.37
2019-04-11T01:55:34.764Z,23.02
2019-04-11T01:58:04.612Z,31.80
2019-04-11T02:00:59.438Z,27.25
2019-04-11T02:04:00.004Z,21.82
2019-04-11T02:06:30.007Z,18.32
2019-04-11T02:08:59.827Z,18.40
2019-04-11T02:11:29.722Z,17.05
2019-04-11T02:14:08.961Z,24.50
2019-04-11T02:16:30.199Z,18.32
2019-04-11T02:19:00.045Z,20.90
2019-04-11T02:21:29.620Z,21.95
2019-04-11T02:24:17.410Z,18.17
2019-04-11T02:26:57.279Z,20.90
2019-04-11T02:29:27.703Z,19.55
2019-04-11T02:31:59.119Z,24.57
2019-04-11T02:34:48.670Z,19.30
2019-04-11T02:37:19.705Z,23.45
2019-04-11T02:39:49.531Z,17.65
2019-04-11T02:42:21.393Z,23.22
2019-04-11T02:45:03.500Z,19.98
2019-04-11T02:47:26.868Z,19.50
2019-04-11T02:49:55.015Z,27.32
2019-04-11T02:52:25.318Z,20.40
2019-04-11T02:54:56.806Z,27.82
2019-04-11T02:57:26.761Z,23.70
2019-04-11T02:59:56.555Z,19.80
2019-04-11T03:02:26.653Z,19.20
2019-04-11T03:04:56.623Z,16.10
2019-04-11T03:07:26.475Z,19.52
2019-04-11T03:09:56.597Z,18.82
2019-04-11T03:12:27.528Z,24.98
2019-04-11T03:15:21.208Z,18.27
2019-04-11T03:17:34.078Z,21.55
2019-04-11T03:20:14.364Z,16.85
2019-04-11T03:22:32.147Z,17.55
2019-04-11T03:25:03.219Z,19.45
2019-04-11T03:27:34.764Z,24.35
2019-04-11T03:30:10.024Z,20.02
2019-04-11T03:33:29.842Z,18.20
2019-04-11T03:38:00.409Z,16.25
2019-04-11T03:40:25.985Z,18.25
2019-04-11T03:42:54.298Z,21.02
2019-04-11T03:45:32.861Z,19.17
2019-04-11T03:48:02.189Z,20.70
2019-04-11T03:50:17.455Z,18.32
2019-04-11T03:52:46.322Z,17.92
2019-04-11T03:55:16.154Z,18.55
2019-04-11T03:57:47.058Z,21.33
2019-04-11T04:00:16.733Z,20.60
2019-04-11T04:02:46.783Z,16.15
2019-04-11T04:05:17.728Z,21.37
2019-04-11T04:07:48.837Z,19.77
2019-04-11T04:10:20.420Z,21.30
2019-04-11T04:12:51.683Z,18.85
2019-04-11T04:15:55.801Z,17.98
2019-04-11T04:18:32.118Z,19.90
2019-04-11T04:21:20.023Z,23.20
2019-04-11T04:23:52.052Z,20.45
2019-04-11T04:26:22.913Z,31.48
2019-04-11T04:28:53.471Z,53.38
2019-04-11T04:31:24.316Z,60.10
2019-04-11T04:33:55.385Z,62.70
2019-04-11T04:36:27.280Z,60.12
2019-04-11T04:38:59.267Z,36.30
2019-04-11T04:41:38.504Z,42.43
2019-04-11T04:44:01.879Z,34.58
2019-04-11T04:46:47.034Z,30.80
2019-04-11T04:49:21.523Z,48.40
2019-04-11T04:51:51.273Z,26.27
2019-04-11T04:54:22.159Z,23.35
2019-04-11T04:56:52.524Z,23.35
2019-04-11T04:59:23.684Z,23.75
2019-04-11T05:01:53.916Z,21.48
2019-04-11T05:04:24.397Z,23.20
2019-04-11T05:06:54.962Z,20.60
2019-04-11T05:09:25.609Z,24.23
2019-04-11T05:11:55.247Z,21.07
2019-04-11T05:14:25.383Z,24.77
2019-04-11T05:16:55.394Z,27.13
2019-04-11T05:19:25.563Z,23.35
2019-04-11T05:21:55.017Z,23.15
2019-04-11T05:24:24.408Z,20.15
2019-04-11T05:26:53.812Z,21.70
2019-04-11T05:29:23.217Z,26.95
2019-04-11T05:31:52.686Z,24.30
2019-04-11T05:34:22.142Z,24.52
2019-04-11T05:36:51.622Z,27.35
2019-04-11T05:39:21.395Z,24.60
2019-04-11T05:41:51.387Z,21.62
2019-04-11T05:44:20.970Z,32.35
2019-04-11T05:46:56.266Z,28.55
2019-04-11T05:49:42.014Z,23.57
2019-04-11T05:52:12.339Z,22.07
2019-04-11T05:54:47.978Z,18.55
2019-04-11T05:57:16.989Z,24.92
2019-04-11T05:59:51.976Z,26.45
2019-04-11T06:02:33.116Z,21.02
2019-04-11T06:05:32.967Z,21.62
2019-04-11T06:08:05.434Z,20.70
2019-04-11T06:10:52.679Z,18.40
2019-04-11T06:13:26.804Z,25.68
2019-04-11T06:16:00.668Z,20.30
2019-04-11T06:18:50.126Z,19.05
2019-04-11T06:21:24.380Z,23.18
2019-04-11T06:24:01.910Z,20.48
2019-04-11T06:27:02.301Z,19.87
2019-04-11T06:29:40.985Z,20.15
2019-04-11T06:32:29.916Z,15.35
2019-04-11T06:35:04.174Z,23.12
2019-04-11T06:37:54.408Z,20.05
2019-04-11T06:40:29.198Z,24.63
2019-04-11T06:43:07.801Z,19.52
2019-04-11T06:45:59.313Z,20.00
2019-04-11T06:48:47.719Z,17.82
2019-04-11T06:51:22.017Z,16.40
2019-04-11T06:54:10.675Z,19.52
2019-04-11T06:56:51.034Z,16.60
2019-04-11T06:59:34.447Z,16.73
2019-04-11T07:02:17.944Z,22.65
2019-04-11T07:04:57.049Z,14.90
2019-04-11T07:07:31.970Z,15.08
2019-04-11T07:10:04.017Z,17.92
2019-04-11T07:12:42.756Z,20.95
2019-04-11T07:15:14.789Z,15.13
2019-04-11T07:18:04.685Z,18.05
2019-04-11T07:21:02.720Z,17.02
2019-04-11T07:23:51.363Z,15.55
2019-04-11T07:26:42.290Z,12.93
2019-04-11T07:29:31.537Z,19.55
2019-04-11T07:32:26.086Z,12.73
2019-04-11T07:35:13.107Z,15.18
2019-04-11T07:37:51.080Z,18.73
2019-04-11T07:40:39.403Z,28.70
2019-04-11T07:43:34.059Z,15.18
2019-04-11T07:46:22.724Z,14.30
2019-04-11T07:49:06.075Z,13.48
2019-04-11T07:51:42.964Z,17.00
2019-04-11T07:54:18.069Z,18.48
2019-04-11T07:57:06.464Z,13.22
2019-04-11T08:00:00.638Z,15.55
2019-04-11T08:03:01.958Z,13.13
2019-04-11T08:06:05.629Z,10.75
2019-04-11T08:08:58.139Z,13.93
2019-04-11T08:11:42.159Z,13.93
2019-04-11T08:14:28.760Z,9.73
2019-04-11T08:17:28.009Z,12.07
2019-04-11T08:20:06.122Z,11.35
2019-04-11T08:22:55.061Z,13.22
2019-04-11T08:25:47.401Z,13.43
2019-04-11T08:28:29.056Z,6.70
2019-04-11T08:31:17.413Z,11.48
2019-04-11T08:33:46.969Z,21.55
2019-04-11T08:36:40.314Z,6.47
2019-04-11T08:39:18.167Z,9.58
2019-04-11T08:42:19.229Z,8.63
2019-04-11T08:44:48.661Z,11.60
2019-04-11T08:47:20.403Z,7.75
2019-04-11T08:49:52.284Z,8.50
2019-04-11T08:52:52.545Z,10.35
2019-04-11T08:55:47.644Z,9.10
2019-04-11T08:58:29.142Z,5.83
2019-04-11T09:01:01.200Z,7.58
2019-04-11T09:04:01.033Z,9.55
2019-04-11T09:06:32.913Z,7.62
2019-04-11T09:09:24.386Z,9.95
2019-04-11T09:12:02.850Z,7.80
2019-04-11T09:15:00.673Z,7.15
2019-04-11T09:17:56.512Z,8.68
2019-04-11T09:20:41.126Z,12.82
2019-04-11T09:23:13.451Z,11.03
2019-04-11T09:26:09.845Z,8.83
2019-04-11T09:28:44.206Z,8.40
2019-04-11T09:31:41.962Z,8.65
2019-04-11T09:34:30.276Z,13.32
2019-04-11T09:37:05.313Z,14.47
2019-04-11T09:40:05.860Z,13.10
2019-04-11T09:42:57.608Z,11.15
2019-04-11T09:45:45.791Z,9.70
2019-04-11T09:48:44.313Z,8.95
2019-04-11T09:51:30.273Z,9.35
2019-04-11T09:54:28.346Z,8.60
2019-04-11T09:57:26.753Z,7.87
2019-04-11T10:00:21.305Z,9.73
2019-04-11T10:03:00.839Z,13.22
2019-04-11T10:05:38.297Z,7.62
2019-04-11T10:08:22.546Z,7.65
2019-04-11T10:11:10.099Z,15.65
2019-04-11T10:14:05.213Z,8.38
2019-04-11T10:16:53.782Z,5.95
2019-04-11T10:19:48.494Z,10.08
2019-04-11T10:22:49.044Z,7.95
2019-04-11T10:25:31.895Z,12.47
2019-04-11T10:28:29.630Z,9.45
2019-04-11T10:31:11.090Z,15.80
2019-04-11T10:33:59.621Z,18.12
2019-04-11T10:36:43.253Z,19.62
2019-04-11T10:39:35.577Z,17.00
2019-04-11T10:42:10.784Z,9.30
2019-04-11T10:45:12.190Z,10.68
2019-04-11T10:47:41.951Z,8.20
2019-04-11T10:50:28.949Z,10.32
2019-04-11T10:53:00.706Z,11.80
2019-04-11T10:55:55.794Z,9.45
2019-04-11T10:58:31.383Z,8.03
2019-04-11T11:01:26.691Z,11.03
2019-04-11T11:04:09.725Z,7.58
2019-04-11T11:06:39.910Z,13.08
2019-04-11T11:09:28.397Z,11.15
2019-04-11T11:12:12.725Z,8.85
2019-04-11T11:15:00.961Z,13.20
2019-04-11T11:18:03.256Z,7.92
2019-04-11T11:20:45.459Z,10.20
2019-04-11T11:23:29.047Z,12.70
2019-04-11T11:26:22.733Z,7.28
2019-04-11T11:29:18.571Z,14.00
2019-04-11T11:32:00.860Z,10.82
2019-04-11T11:35:03.269Z,7.95
2019-04-11T11:37:51.676Z,24.80
2019-04-11T11:40:42.417Z,18.42
2019-04-11T11:43:17.557Z,15.68
2019-04-11T11:46:26.818Z,18.07
2019-04-11T11:49:00.741Z,10.15
2019-04-11T11:52:03.841Z,12.25
2019-04-11T11:54:37.886Z,9.53
2019-04-11T11:57:22.545Z,12.82
2019-04-11T12:00:00.788Z,9.70
2019-04-11T12:02:34.991Z,11.15
2019-04-11T12:05:18.351Z,8.38
2019-04-11T12:08:00.229Z,9.58
2019-04-11T12:10:47.775Z,7.25
2019-04-11T12:13:32.609Z,14.78
2019-04-11T12:16:15.996Z,12.15
2019-04-11T12:18:59.095Z,13.55
2019-04-11T12:21:31.474Z,18.50
2019-04-11T12:24:29.264Z,17.02
2019-04-11T12:27:41.503Z,12.93
2019-04-11T12:30:37.246Z,9.10
2019-04-11T12:33:33.116Z,13.53
2019-04-11T12:36:08.178Z,10.28
2019-04-11T12:39:11.617Z,9.98
2019-04-11T12:42:00.026Z,10.38
2019-04-11T12:44:46.355Z,8.53
2019-04-11T12:47:38.609Z,9.38
2019-04-11T12:50:28.614Z,11.60
2019-04-11T12:53:16.954Z,9.45
2019-04-11T12:56:08.245Z,8.33
2019-04-11T12:58:56.789Z,9.28
2019-04-11T13:01:43.862Z,9.25
2019-04-11T13:04:33.145Z,9.65
2019-04-11T13:07:30.359Z,8.03
2019-04-11T13:10:23.980Z,6.95
2019-04-11T13:13:11.745Z,9.25
2019-04-11T13:15:43.026Z,10.30
2019-04-11T13:18:43.620Z,8.25
2019-04-11T13:21:23.205Z,7.87
2019-04-11T13:24:10.560Z,12.95
2019-04-11T13:27:11.206Z,9.85
2019-04-11T13:30:05.438Z,7.60
2019-04-11T13:32:54.613Z,13.22
2019-04-11T13:35:46.169Z,6.67
2019-04-11T13:38:37.336Z,10.13
2019-04-11T13:41:29.168Z,9.45
2019-04-11T13:44:05.670Z,7.42
2019-04-11T13:46:49.950Z,6.72
2019-04-11T13:49:38.358Z,8.73
2019-04-11T14:04:22.860Z,7.62
2019-04-11T14:06:52.873Z,6.33
2019-04-11T14:09:30.875Z,6.08
2019-04-11T14:12:04.896Z,7.20
2019-04-11T14:14:52.145Z,7.50
2019-04-11T14:17:41.560Z,8.85
2019-04-11T14:20:29.087Z,8.03
2019-04-11T14:23:14.687Z,9.35
2019-04-11T14:26:05.997Z,12.33
2019-04-11T14:28:47.297Z,16.35
2019-04-11T14:31:41.717Z,14.13
2019-04-11T14:34:30.687Z,7.90
2019-04-11T14:37:16.913Z,8.38
2019-04-11T14:39:48.589Z,6.72
2019-04-11T14:42:46.417Z,6.80
2019-04-11T14:45:36.582Z,7.65
2019-04-11T14:48:19.165Z,5.30
2019-04-11T14:51:06.417Z,6.03
2019-04-11T14:53:55.101Z,13.35
2019-04-11T14:56:27.045Z,6.30
2019-04-11T14:59:17.814Z,6.50
2019-04-11T15:01:49.233Z,5.40
2019-04-11T15:04:37.714Z,6.78
2019-04-11T15:07:07.376Z,6.22
2019-04-11T15:09:58.869Z,5.47
2019-04-11T15:12:30.657Z,11.22
2019-04-11T15:15:22.037Z,7.62
2019-04-11T15:17:55.731Z,10.25
2019-04-11T15:20:54.152Z,7.70
2019-04-11T15:23:21.382Z,10.18
2019-04-11T15:26:09.746Z,7.72
2019-04-11T15:28:53.932Z,8.10
2019-04-11T15:31:42.343Z,5.45
2019-04-11T15:34:34.189Z,6.47
2019-04-11T15:37:19.889Z,5.00
2019-04-11T15:40:23.812Z,7.47
2019-04-11T15:43:06.606Z,5.85
2019-04-11T15:45:53.710Z,8.50
2019-04-11T15:49:00.509Z,6.42
2019-04-11T15:51:41.337Z,8.03
2019-04-11T15:54:34.877Z,7.00
2019-04-11T15:57:22.969Z,10.48
2019-04-11T16:00:14.946Z,5.35
2019-04-11T16:02:59.506Z,4.62
2019-04-11T16:05:47.867Z,8.53
2019-04-11T16:08:41.871Z,6.97
2019-04-11T16:11:27.958Z,6.75
2019-04-11T16:14:16.294Z,6.42
2019-04-11T16:17:13.960Z,8.20
2019-04-11T16:19:48.001Z,6.17
2019-04-11T16:22:35.783Z,5.75
2019-04-11T16:25:10.109Z,7.58
2019-04-11T16:28:08.133Z,7.45
2019-04-11T16:30:40.425Z,8.88
2019-04-11T16:33:31.609Z,8.93
2019-04-11T16:36:09.322Z,9.23
2019-04-11T16:38:51.935Z,8.53
2019-04-11T16:41:38.989Z,7.28
2019-04-11T16:44:11.530Z,12.88
2019-04-11T16:46:58.838Z,8.10
2019-04-11T16:49:28.699Z,8.23
2019-04-11T16:51:58.129Z,8.03
2019-04-11T16:54:27.627Z,5.60
2019-04-11T16:56:57.028Z,7.90
2019-04-11T16:59:26.671Z,6.15
2019-04-11T17:01:56.398Z,16.17
2019-04-11T17:04:26.544Z,12.40
2019-04-11T17:07:20.785Z,11.83
2019-04-11T17:09:51.102Z,9.35
2019-04-11T17:12:20.530Z,13.32
2019-04-11T17:14:49.937Z,9.38
2019-04-11T17:17:19.392Z,7.28
2019-04-11T17:19:48.826Z,6.90
2019-04-11T17:22:18.923Z,9.05
2019-04-11T17:24:48.873Z,8.53
2019-04-11T17:27:18.268Z,12.45
2019-04-11T17:29:47.825Z,8.68
2019-04-11T17:32:17.590Z,7.33
2019-04-11T17:34:47.399Z,9.60
2019-04-11T17:37:16.938Z,7.62
2019-04-11T17:39:46.422Z,15.78
2019-04-11T17:42:15.830Z,9.93
2019-04-11T17:44:45.936Z,8.75
2019-04-11T17:47:15.535Z,10.45
2019-04-11T17:49:45.042Z,8.38
2019-04-11T17:52:14.517Z,10.15
2019-04-11T17:54:43.928Z,5.50
2019-04-11T17:57:13.356Z,7.62
2019-04-11T17:59:43.218Z,9.05
2019-04-11T18:02:12.659Z,6.35
2019-04-11T18:04:47.735Z,8.83
2019-04-11T18:07:17.635Z,8.63
2019-04-11T18:09:46.282Z,8.15
2019-04-11T18:12:15.705Z,12.23
2019-04-11T18:14:45.098Z,8.00
2019-04-11T18:17:16.448Z,11.50
2019-04-11T18:19:45.646Z,9.33
2019-04-11T18:22:15.075Z,7.90
2019-04-11T18:24:44.515Z,9.05
2019-04-11T18:27:13.963Z,8.60
2019-04-11T18:29:43.360Z,11.45
2019-04-11T18:32:12.835Z,6.58
2019-04-11T18:34:42.261Z,8.23
2019-04-11T18:37:13.198Z,8.90
2019-04-11T18:39:42.609Z,10.28
2019-04-11T18:42:12.090Z,12.13
2019-04-11T18:44:41.803Z,9.50
2019-04-11T18:47:11.612Z,9.38
2019-04-11T18:49:41.483Z,6.55
2019-04-11T18:52:19.494Z,7.37
2019-04-11T18:54:45.142Z,5.15
2019-04-11T18:57:14.794Z,9.93
2019-04-11T18:59:44.221Z,8.00
2019-04-11T19:02:13.777Z,6.80
2019-04-11T19:04:43.233Z,8.10
2019-04-11T19:07:13.172Z,6.28
2019-04-11T19:09:43.872Z,5.45
2019-04-11T19:12:16.365Z,8.88
2019-04-11T19:14:46.502Z,11.73
2019-04-11T19:17:16.448Z,9.63
2019-04-11T19:19:48.647Z,8.20
2019-04-11T19:22:19.614Z,7.85
2019-04-11T19:24:48.820Z,5.78
2019-04-11T19:27:20.454Z,8.08
2019-04-11T19:29:55.791Z,7.83
2019-04-11T19:32:23.325Z,7.08
2019-04-11T19:34:53.185Z,6.62
2019-04-11T19:37:23.018Z,9.23
2019-04-11T19:39:52.414Z,7.50
2019-04-11T19:42:23.874Z,8.43
2019-04-11T19:44:53.326Z,11.90
2019-04-11T19:47:23.105Z,9.13
2019-04-11T19:49:52.598Z,7.47
2019-04-11T19:52:22.354Z,8.30
2019-04-11T19:54:52.190Z,8.75
2019-04-11T19:57:22.095Z,7.45
2019-04-11T19:59:51.521Z,11.03
2019-04-11T20:02:23.384Z,9.70
2019-04-11T20:04:52.472Z,8.08
2019-04-11T20:07:21.867Z,7.97
2019-04-11T20:09:51.977Z,14.03
2019-04-11T20:12:21.712Z,9.60
2019-04-11T20:14:51.147Z,8.20
2019-04-11T20:17:20.560Z,8.98
2019-04-11T20:20:00.614Z,8.40
2019-04-11T20:22:21.681Z,10.00
2019-04-11T20:24:51.051Z,7.92
2019-04-11T20:27:20.948Z,7.17
2019-04-11T20:29:53.057Z,9.28
2019-04-11T20:32:21.670Z,9.38
2019-04-11T20:34:51.495Z,14.25
2019-04-11T20:37:20.880Z,10.95
2019-04-11T20:39:50.280Z,11.20
2019-04-11T20:42:24.037Z,7.53
2019-04-11T20:44:51.108Z,9.93
2019-04-11T20:47:20.987Z,7.17
2019-04-11T20:49:50.414Z,8.75
2019-04-11T20:52:19.892Z,9.28
2019-04-11T20:54:49.294Z,8.10
2019-04-11T20:57:25.499Z,6.12
2019-04-11T20:59:49.765Z,7.60
2019-04-11T21:02:19.265Z,9.65
2019-04-11T21:04:48.958Z,10.25
2019-04-11T21:07:18.370Z,13.90
2019-04-11T21:09:47.782Z,12.53
2019-04-11T21:12:18.264Z,9.95
2019-04-11T21:14:48.027Z,9.78
2019-04-11T21:17:17.889Z,10.72
2019-04-11T21:19:47.318Z,9.98
2019-04-11T21:22:16.749Z,9.33
2019-04-11T21:24:46.614Z,8.35
2019-04-11T21:27:16.112Z,10.58
2019-04-11T21:29:45.566Z,7.15
2019-04-11T21:32:15.044Z,9.03
2019-04-11T21:34:44.555Z,13.32
2019-04-11T21:37:13.963Z,8.58
2019-04-11T21:39:43.388Z,7.95
2019-04-11T21:42:13.173Z,8.88
2019-04-11T21:44:43.801Z,9.75
2019-04-11T21:47:13.248Z,9.68
2019-04-11T21:49:42.705Z,9.28
2019-04-11T21:52:12.980Z,8.38
2019-04-11T21:54:45.134Z,10.05
2019-04-11T21:57:13.666Z,11.75
2019-04-11T21:59:43.086Z,9.15
2019-04-11T22:02:13.749Z,12.00
2019-04-11T22:04:43.123Z,8.48
2019-04-11T22:07:12.573Z,12.13
2019-04-11T22:09:41.990Z,11.97
2019-04-11T22:12:11.591Z,13.13
2019-04-11T22:14:41.929Z,12.28
2019-04-11T22:17:15.072Z,9.48
2019-04-11T22:19:45.651Z,10.00
2019-04-11T22:22:14.098Z,10.78
2019-04-11T22:24:43.783Z,11.25
2019-04-11T22:27:13.217Z,8.10
2019-04-11T22:29:42.618Z,18.48
2019-04-11T22:32:12.008Z,13.53
2019-04-11T22:34:43.824Z,17.62
2019-04-11T22:37:13.257Z,12.70
2019-04-11T22:39:42.653Z,11.88
2019-04-11T22:42:12.259Z,10.63
2019-04-11T22:44:41.725Z,10.63
2019-04-11T22:47:11.141Z,7.40
2019-04-11T22:49:40.943Z,11.25
2019-04-11T22:52:11.368Z,13.78
2019-04-11T22:54:42.010Z,11.38
2019-04-11T22:57:12.285Z,9.93
2019-04-11T22:59:45.033Z,10.28
2019-04-11T23:02:32.268Z,8.75
2019-04-11T23:05:01.717Z,11.28
2019-04-11T23:07:31.113Z,10.82
2019-04-11T23:10:00.574Z,12.58
2019-04-11T23:12:30.312Z,8.65
2019-04-11T23:14:59.714Z,8.35
2019-04-11T23:17:29.115Z,8.18
2019-04-11T23:19:58.516Z,10.23
2019-04-11T23:22:27.925Z,13.55
2019-04-11T23:24:57.345Z,11.45
2019-04-11T23:27:26.796Z,8.15
2019-04-11T23:29:56.212Z,12.30
2019-04-11T23:32:25.661Z,9.90
2019-04-11T23:34:55.052Z,8.05
2019-04-11T23:37:24.484Z,8.50
2019-04-11T23:39:53.883Z,12.18
2019-04-11T23:42:23.443Z,8.28
2019-04-11T23:44:52.861Z,10.32
2019-04-11T23:47:23.013Z,11.33
2019-04-11T23:49:56.003Z,10.35
2019-04-11T23:52:26.818Z,10.98
2019-04-11T23:54:55.671Z,8.85
2019-04-11T23:57:25.078Z,11.33
2019-04-11T23:59:54.509Z,15.08
